Time;durP1;ratioP1;P1;durP2;ratioP2;P2;SDS_P1;SDS_P2;PMS_P1;PMS_P2;Temp;Humidity;BMP_temperature;BMP_pressure;BME280_temperature;BME280_humidity;BME280_pressure;Samples;Min_cycle;Max_cycle;Signal;HPM_P1;HPM_P2
2024/01/04 00:00:27;;;;;;;;;;;;;;;12.45;58.25;96282.47;4227785;28;5646;-63
2024/01/04 00:02:32;;;;;;;;;;;;;;;12.47;58.58;96285.72;4227742;28;6371;-64
2024/01/04 00:04:35;;;;;;;;;;;;;;;12.48;58.37;96284.69;4218929;28;5758;-64
2024/01/04 00:06:44;;;;;;;;;;;;;;;12.48;58.35;96280.19;4223472;28;5646;-64
2024/01/04 00:08:47;;;;;;;;;;;;;;;12.42;58.35;96280.25;4227326;28;5736;-64
2024/01/04 00:10:50;;;;;;;;;;;;;;;12.42;58.60;96288.19;4230332;28;5672;-63
2024/01/04 00:12:53;;;;;;;;;;;;;;;12.40;58.69;96298.22;4227411;28;5727;-64
2024/01/04 00:14:59;;;;;;;;;;;;;;;12.40;58.37;96311.47;4219297;28;5885;-63
2024/01/04 00:17:02;;;;;;;;;;;;;;;12.40;58.70;96306.16;4227663;28;5849;-63
2024/01/04 00:19:06;;;;;;;;;;;;;;;12.39;58.56;96307.19;4235127;28;5853;-63
2024/01/04 00:21:13;;;;;;;;;;;;;;;12.40;58.44;96303.53;4235453;28;5832;-63
2024/01/04 00:23:16;;;;;;;;;;;;;;;12.39;58.24;96313.31;4218843;28;5688;-64
2024/01/04 00:25:19;;;;;;;;;;;;;;;12.41;58.43;96313.09;4229048;28;5744;-63
2024/01/04 00:27:22;;;;;;;;;;;;;;;12.41;58.27;96305.94;4233590;27;5693;-63
2024/01/04 00:29:25;;;;;;;;;;;;;;;12.39;58.27;96313.31;4227329;28;5649;-64
2024/01/04 00:31:28;;;;;;;;;;;;;;;12.37;58.20;96306.59;4218698;28;5780;-64
2024/01/04 00:33:31;;;;;;;;;;;;;;;12.33;58.18;96306.22;4226938;28;5804;-64
2024/01/04 00:35:36;;;;;;;;;;;;;;;12.33;58.21;96306.22;4218941;28;5671;-64
2024/01/04 00:37:38;;;;;;;;;;;;;;;12.36;58.15;96307.63;4231258;28;5733;-64
2024/01/04 00:39:41;;;;;;;;;;;;;;;12.38;57.92;96310.88;4222146;28;5672;-64
2024/01/04 00:41:44;;;;;;;;;;;;;;;12.37;57.87;96304.78;4218905;28;5770;-64
2024/01/04 00:43:47;;;;;;;;;;;;;;;12.37;58.00;96306.59;4218871;28;5664;-64
2024/01/04 00:45:50;;;;;;;;;;;;;;;12.38;58.03;96311.69;4233085;28;5634;-64
2024/01/04 00:47:53;;;;;;;;;;;;;;;12.42;58.03;96312.06;4228981;28;5801;-63
2024/01/04 00:49:57;;;;;;;;;;;;;;;12.45;57.93;96316.91;4226658;28;5762;-63
2024/01/04 00:52:01;;;;;;;;;;;;;;;12.42;57.63;96312.06;4226881;28;5758;-63
2024/01/04 00:54:04;;;;;;;;;;;;;;;12.37;57.56;96310.06;4234653;28;5740;-64
2024/01/04 00:56:08;;;;;;;;;;;;;;;12.37;57.63;96325.97;4217826;28;5683;-65
2024/01/04 00:58:10;;;;;;;;;;;;;;;12.42;57.83;96333.28;4226826;28;5754;-66
2024/01/04 01:00:15;;;;;;;;;;;;;;;12.45;57.79;96338.94;4226216;28;5743;-64
2024/01/04 01:02:16;;;;;;;;;;;;;;;12.47;57.74;96347.50;4219867;28;5850;-64
2024/01/04 01:04:19;;;;;;;;;;;;;;;12.43;57.82;96340.19;4226496;27;5675;-63
2024/01/04 01:06:22;;;;;;;;;;;;;;;12.42;57.66;96346.53;4226824;28;5676;-65
2024/01/04 01:08:27;;;;;;;;;;;;;;;12.40;57.50;96352.03;4226620;28;5679;-64
2024/01/04 01:10:32;;;;;;;;;;;;;;;12.39;57.61;96353.06;4226466;28;5637;-64
2024/01/04 01:12:35;;;;;;;;;;;;;;;12.38;57.37;96358.59;4226778;28;5642;-64
2024/01/04 01:14:37;;;;;;;;;;;;;;;12.35;57.50;96359.03;4222543;28;5687;-64
2024/01/04 01:16:40;;;;;;;;;;;;;;;12.34;57.21;96357.38;4223484;28;5650;-64
2024/01/04 01:18:43;;;;;;;;;;;;;;;12.33;57.34;96371.66;4221341;27;5687;-63
2024/01/04 01:20:46;;;;;;;;;;;;;;;12.31;57.16;96361.28;4229471;28;5762;-65
2024/01/04 01:22:49;;;;;;;;;;;;;;;12.31;57.04;96363.13;4223875;28;5849;-64
2024/01/04 01:24:53;;;;;;;;;;;;;;;12.31;57.00;96369.22;4235019;28;5843;-63
2024/01/04 01:26:55;;;;;;;;;;;;;;;12.32;57.35;96360.25;4219559;28;5680;-64
2024/01/04 01:28:58;;;;;;;;;;;;;;;12.33;57.19;96361.88;4225023;28;5707;-63
2024/01/04 01:31:02;;;;;;;;;;;;;;;12.31;57.23;96363.13;4227429;28;5065;-64
2024/01/04 01:33:05;;;;;;;;;;;;;;;12.33;57.33;96361.06;4226191;28;5729;-64
2024/01/04 01:35:09;;;;;;;;;;;;;;;12.35;57.51;96364.34;4220546;28;5670;-64
2024/01/04 01:37:12;;;;;;;;;;;;;;;12.36;57.26;96361.47;4232480;28;5666;-64
2024/01/04 01:39:15;;;;;;;;;;;;;;;12.35;57.46;96369.63;4226888;28;6460;-64
2024/01/04 01:41:19;;;;;;;;;;;;;;;12.33;57.26;96371.66;4233500;28;5745;-64
2024/01/04 01:43:22;;;;;;;;;;;;;;;12.33;57.40;96374.31;4219752;28;5909;-64
2024/01/04 01:45:25;;;;;;;;;;;;;;;12.31;57.36;96373.72;4232025;28;5857;-64
2024/01/04 01:47:28;;;;;;;;;;;;;;;12.33;57.62;96371.66;4217813;28;5290;-63
2024/01/04 01:49:32;;;;;;;;;;;;;;;12.37;57.27;96373.69;4220341;28;5815;-63
2024/01/04 01:51:35;;;;;;;;;;;;;;;12.35;57.36;96385.53;4230765;28;5755;-64
2024/01/04 01:53:38;;;;;;;;;;;;;;;12.34;57.48;96383.88;4219656;28;5838;-65
2024/01/04 01:55:41;;;;;;;;;;;;;;;12.35;57.59;96391.66;4225904;28;5656;-64
2024/01/04 01:57:45;;;;;;;;;;;;;;;12.36;57.39;96380.00;4222836;28;5646;-64
2024/01/04 01:59:47;;;;;;;;;;;;;;;12.39;57.07;96379.59;4219982;28;5660;-63
2024/01/04 02:01:52;;;;;;;;;;;;;;;12.38;57.01;96385.91;4232027;28;5659;-64
2024/01/04 02:03:55;;;;;;;;;;;;;;;12.38;56.91;96398.34;4234264;28;5662;-64
2024/01/04 02:05:58;;;;;;;;;;;;;;;12.39;56.81;96399.97;4227135;28;5821;-64
2024/01/04 02:08:01;;;;;;;;;;;;;;;12.40;56.78;96391.81;4233117;28;6639;-64
2024/01/04 02:10:04;;;;;;;;;;;;;;;12.40;57.00;96398.94;4233578;28;5758;-64
2024/01/04 02:12:12;;;;;;;;;;;;;;;12.39;56.99;96392.84;4225388;28;5803;-64
2024/01/04 02:14:17;;;;;;;;;;;;;;;12.41;57.37;96395.28;4224044;28;5664;-64
2024/01/04 02:16:20;;;;;;;;;;;;;;;12.43;57.52;96409.94;4219100;28;5667;-63
2024/01/04 02:18:23;;;;;;;;;;;;;;;12.43;57.25;96399.31;4234065;28;5651;-65
2024/01/04 02:20:27;;;;;;;;;;;;;;;12.46;57.39;96420.13;4225581;28;6614;-64
2024/01/04 02:22:30;;;;;;;;;;;;;;;12.47;57.46;96415.63;4222053;28;5663;-64
2024/01/04 02:24:34;;;;;;;;;;;;;;;12.46;57.25;96403.41;4220809;28;5782;-64
2024/01/04 02:26:37;;;;;;;;;;;;;;;12.46;57.33;96409.53;4225612;28;5653;-64
2024/01/04 02:28:40;;;;;;;;;;;;;;;12.42;57.39;96420.75;4220820;28;5867;-64
2024/01/04 02:30:43;;;;;;;;;;;;;;;12.37;57.22;96425.88;4216914;28;5672;-64
2024/01/04 02:32:46;;;;;;;;;;;;;;;12.27;56.91;96428.19;4222533;28;5682;-64
2024/01/04 02:34:49;;;;;;;;;;;;;;;12.28;57.21;96435.13;4219533;28;5664;-64
2024/01/04 02:36:52;;;;;;;;;;;;;;;12.29;57.53;96439.38;4225542;28;5659;-64
2024/01/04 02:38:54;;;;;;;;;;;;;;;12.33;57.69;96444.03;4216836;28;5691;-64
2024/01/04 02:40:58;;;;;;;;;;;;;;;12.36;57.69;96437.53;4224063;28;5733;-64
2024/01/04 02:43:00;;;;;;;;;;;;;;;12.39;57.47;96445.84;4224289;28;5688;-64
2024/01/04 02:45:03;;;;;;;;;;;;;;;12.39;57.78;96439.75;4225941;28;5778;-64
2024/01/04 02:47:07;;;;;;;;;;;;;;;12.46;57.58;96445.81;4234061;28;5642;-65
2024/01/04 02:49:09;;;;;;;;;;;;;;;12.45;57.54;96425.63;4233601;28;5658;-64
2024/01/04 02:51:12;;;;;;;;;;;;;;;12.45;57.55;96426.44;4232968;28;5662;-64
2024/01/04 02:53:14;;;;;;;;;;;;;;;12.44;57.70;96432.75;4217983;28;5718;-63
2024/01/04 02:55:18;;;;;;;;;;;;;;;12.42;57.77;96426.06;4232513;28;5130;-63
2024/01/04 02:57:22;;;;;;;;;;;;;;;12.39;57.93;96429.13;4216952;28;7695;-63
2024/01/04 02:59:25;;;;;;;;;;;;;;;12.40;57.84;96436.06;4217028;28;5660;-64
2024/01/04 03:01:28;;;;;;;;;;;;;;;12.40;57.99;96436.06;4220192;28;5666;-65
2024/01/04 03:03:32;;;;;;;;;;;;;;;12.37;57.84;96433.84;4223675;28;5650;-63
2024/01/04 03:05:35;;;;;;;;;;;;;;;12.35;57.36;96417.34;4225734;28;5766;-63
2024/01/04 03:07:37;;;;;;;;;;;;;;;12.32;56.70;96425.69;4237279;28;5658;-63
2024/01/04 03:09:40;;;;;;;;;;;;;;;12.31;57.33;96421.44;4231418;28;5846;-64
2024/01/04 03:11:43;;;;;;;;;;;;;;;12.30;57.03;96419.81;4227163;28;6371;-63
2024/01/04 03:13:51;;;;;;;;;;;;;;;12.32;56.65;96418.56;4232391;28;5781;-64
2024/01/04 03:15:54;;;;;;;;;;;;;;;12.28;56.85;96414.72;4236202;28;5670;-63
2024/01/04 03:17:57;;;;;;;;;;;;;;;12.28;56.46;96421.84;4236282;28;5665;-62
2024/01/04 03:19:59;;;;;;;;;;;;;;;12.24;56.59;96418.84;4228192;28;5829;-63
2024/01/04 03:22:02;;;;;;;;;;;;;;;12.24;56.87;96430.25;4228240;28;5679;-63
2024/01/04 03:24:06;;;;;;;;;;;;;;;12.24;56.57;96434.72;4228175;28;6151;-63
2024/01/04 03:26:09;;;;;;;;;;;;;;;12.24;56.48;96432.91;4220092;28;5663;-64
2024/01/04 03:28:12;;;;;;;;;;;;;;;12.22;56.38;96426.16;4236230;28;5642;-64
2024/01/04 03:30:17;;;;;;;;;;;;;;;12.23;56.61;96423.31;4229547;28;5095;-64
2024/01/04 03:32:20;;;;;;;;;;;;;;;12.28;56.74;96432.47;4228069;28;7671;-63
2024/01/04 03:34:24;;;;;;;;;;;;;;;12.30;56.30;96431.22;4236347;28;5661;-64
2024/01/04 03:36:27;;;;;;;;;;;;;;;12.28;56.47;96433.28;4233957;28;5838;-64
2024/01/04 03:38:30;;;;;;;;;;;;;;;12.30;56.12;96433.88;4222831;28;5642;-64
2024/01/04 03:40:33;;;;;;;;;;;;;;;12.30;56.25;96438.34;4228081;28;5638;-64
2024/01/04 03:42:36;;;;;;;;;;;;;;;12.30;55.82;96427.75;4223984;28;5754;-64
2024/01/04 03:44:39;;;;;;;;;;;;;;;12.27;55.55;96429.00;4224299;28;5649;-64
2024/01/04 03:46:44;;;;;;;;;;;;;;;12.25;55.69;96433.72;4227748;28;5656;-63
2024/01/04 03:48:47;;;;;;;;;;;;;;;12.23;55.16;96451.63;4230531;28;5848;-64
2024/01/04 03:50:50;;;;;;;;;;;;;;;12.21;55.08;96454.50;4228136;28;5828;-63
2024/01/04 03:52:53;;;;;;;;;;;;;;;12.23;55.37;96441.03;4228518;28;6497;-63
2024/01/04 03:54:56;;;;;;;;;;;;;;;12.28;55.27;96453.66;4236634;28;6528;-63
2024/01/04 03:57:00;;;;;;;;;;;;;;;12.28;55.44;96461.63;4235869;28;5842;-63
2024/01/04 03:59:03;;;;;;;;;;;;;;;12.29;55.40;96458.75;4228565;28;5667;-63
2024/01/04 04:01:05;;;;;;;;;;;;;;;12.30;55.58;96454.25;4228058;28;5735;-63
2024/01/04 04:03:09;;;;;;;;;;;;;;;12.30;55.39;96454.25;4227726;28;5696;-64
2024/01/04 04:05:12;;;;;;;;;;;;;;;12.27;55.25;96465.28;4227589;28;5828;-64
2024/01/04 04:07:15;;;;;;;;;;;;;;;12.28;55.32;96458.97;4226534;27;5663;-64
2024/01/04 04:09:19;;;;;;;;;;;;;;;12.27;55.27;96467.94;4221233;28;5669;-63
2024/01/04 04:11:22;;;;;;;;;;;;;;;12.26;55.08;96461.84;4218811;28;5849;-64
2024/01/04 04:13:25;;;;;;;;;;;;;;;12.29;55.10;96458.75;4227490;28;5657;-64
2024/01/04 04:15:28;;;;;;;;;;;;;;;12.31;55.41;96463.84;4227630;28;5660;-64
2024/01/04 04:17:31;;;;;;;;;;;;;;;12.34;55.31;96464.22;4228165;28;5729;-64
2024/01/04 04:19:35;;;;;;;;;;;;;;;12.34;55.21;96458.09;4230386;28;5679;-64
2024/01/04 04:21:38;;;;;;;;;;;;;;;12.35;55.29;96459.75;4228039;28;5641;-64
2024/01/04 04:23:42;;;;;;;;;;;;;;;12.36;55.24;96459.53;4221751;28;5742;-64
2024/01/04 04:25:44;;;;;;;;;;;;;;;12.38;54.99;96464.63;4231413;28;5642;-65
2024/01/04 04:27:47;;;;;;;;;;;;;;;12.41;54.83;96465.00;4224201;28;5764;-64
2024/01/04 04:29:50;;;;;;;;;;;;;;;12.45;54.88;96465.38;4226720;28;5658;-65
2024/01/04 04:31:54;;;;;;;;;;;;;;;12.46;55.11;96456.44;4233224;28;6369;-64
2024/01/04 04:33:57;;;;;;;;;;;;;;;12.47;54.96;96452.75;4219933;28;5671;-64
2024/01/04 04:36:03;;;;;;;;;;;;;;;12.49;54.95;96454.16;4218393;28;5953;-64
2024/01/04 04:38:06;;;;;;;;;;;;;;;12.49;55.26;96456.00;4218778;28;5758;-64
2024/01/04 04:40:08;;;;;;;;;;;;;;;12.50;55.28;96457.63;4218482;28;5754;-65
2024/01/04 04:42:16;;;;;;;;;;;;;;;12.47;55.29;96456.22;4227313;28;6366;-65
2024/01/04 04:44:19;;;;;;;;;;;;;;;12.48;55.12;96463.13;4231503;28;5728;-64
2024/01/04 04:46:22;;;;;;;;;;;;;;;12.47;55.15;96461.50;4229313;28;5645;-64
2024/01/04 04:48:26;;;;;;;;;;;;;;;12.47;55.14;96460.72;4226417;27;5790;-62
2024/01/04 04:50:29;;;;;;;;;;;;;;;12.50;54.95;96460.28;4226760;28;5634;-63
2024/01/04 04:52:33;;;;;;;;;;;;;;;12.50;54.78;96452.31;4226842;28;6533;-64
2024/01/04 04:54:36;;;;;;;;;;;;;;;12.48;54.82;96457.84;4226610;28;5748;-65
2024/01/04 04:56:39;;;;;;;;;;;;;;;12.48;54.95;96460.50;4231124;27;5679;-64
2024/01/04 04:58:42;;;;;;;;;;;;;;;12.51;54.99;96464.53;4223031;28;5643;-64
2024/01/04 05:00:45;;;;;;;;;;;;;;;12.53;54.88;96465.94;4229349;28;5689;-63
2024/01/04 05:02:48;;;;;;;;;;;;;;;12.53;54.94;96470.44;4220930;28;5742;-64
2024/01/04 05:04:51;;;;;;;;;;;;;;;12.53;54.81;96473.09;4232478;28;6418;-64
2024/01/04 05:06:53;;;;;;;;;;;;;;;12.51;54.84;96480.44;4218931;28;7034;-64
2024/01/04 05:08:57;;;;;;;;;;;;;;;12.52;54.85;96482.06;4233246;28;5666;-63
2024/01/04 05:11:00;;;;;;;;;;;;;;;12.52;54.96;96474.13;4219246;28;5684;-63
2024/01/04 05:13:03;;;;;;;;;;;;;;;12.52;54.92;96474.13;4225872;28;5862;-64
2024/01/04 05:15:07;;;;;;;;;;;;;;;12.49;54.76;96471.91;4218233;28;5672;-64
2024/01/04 05:17:10;;;;;;;;;;;;;;;12.47;54.54;96473.97;4220307;28;5667;-64
2024/01/04 05:19:13;;;;;;;;;;;;;;;12.46;54.80;96472.34;4218486;28;5682;-64
2024/01/04 05:21:16;;;;;;;;;;;;;;;12.45;54.84;96470.69;4225260;27;5774;-64
2024/01/04 05:23:19;;;;;;;;;;;;;;;12.46;54.75;96475.81;4219059;28;5734;-64
2024/01/04 05:25:24;;;;;;;;;;;;;;;12.47;54.95;96485.38;4232154;28;5721;-64
2024/01/04 05:27:26;;;;;;;;;;;;;;;12.47;54.74;96485.38;4220698;28;5876;-65
2024/01/04 05:29:28;;;;;;;;;;;;;;;12.46;54.72;96483.75;4223693;28;5763;-64
2024/01/04 05:31:32;;;;;;;;;;;;;;;12.45;54.46;96476.81;4217793;28;5671;-64
2024/01/04 05:33:35;;;;;;;;;;;;;;;12.46;54.54;96475.00;4218210;28;5671;-64
2024/01/04 05:35:38;;;;;;;;;;;;;;;12.46;54.19;96464.38;4220239;28;5739;-65
2024/01/04 05:37:41;;;;;;;;;;;;;;;12.49;53.89;96456.81;4217931;28;5683;-64
2024/01/04 05:39:45;;;;;;;;;;;;;;;12.49;54.21;96461.31;4225121;28;5638;-65
2024/01/04 05:41:49;;;;;;;;;;;;;;;12.49;53.80;96470.06;4229045;28;5671;-65
2024/01/04 05:43:52;;;;;;;;;;;;;;;12.49;53.87;96474.56;4232287;28;5785;-63
2024/01/04 05:45:56;;;;;;;;;;;;;;;12.47;53.81;96476.63;4221601;28;5675;-64
2024/01/04 05:47:59;;;;;;;;;;;;;;;12.45;54.05;96475.97;4225977;28;5730;-64
2024/01/04 05:50:03;;;;;;;;;;;;;;;12.42;54.05;96473.78;4225811;28;5679;-64
2024/01/04 05:52:07;;;;;;;;;;;;;;;12.41;53.82;96475.59;4217557;28;5855;-64
2024/01/04 05:54:10;;;;;;;;;;;;;;;12.41;53.97;96458.88;4225749;28;5710;-63
2024/01/04 05:56:13;;;;;;;;;;;;;;;12.42;54.25;96465.81;4225970;28;5740;-63
2024/01/04 05:58:16;;;;;;;;;;;;;;;12.44;53.83;96461.09;4225912;28;5728;-64
2024/01/04 06:00:20;;;;;;;;;;;;;;;12.45;53.83;96465.38;4217726;28;5082;-64
2024/01/04 06:02:26;;;;;;;;;;;;;;;12.43;53.86;96484.16;4228172;28;5767;-63
2024/01/04 06:04:29;;;;;;;;;;;;;;;12.44;53.78;96480.47;4225480;27;5646;-63
2024/01/04 06:06:32;;;;;;;;;;;;;;;12.44;53.75;96469.88;4234289;28;5653;-63
2024/01/04 06:08:35;;;;;;;;;;;;;;;12.44;53.71;96479.66;4228837;28;6375;-63
2024/01/04 06:10:38;;;;;;;;;;;;;;;12.44;53.83;96474.38;4229959;28;5084;-64
2024/01/04 06:12:42;;;;;;;;;;;;;;;12.47;53.21;96487.22;4219564;28;7659;-64
2024/01/04 06:14:48;;;;;;;;;;;;;;;12.49;53.32;96482.50;4217158;28;5707;-65
2024/01/04 06:16:51;;;;;;;;;;;;;;;12.47;53.34;96480.06;4218059;28;5675;-72
2024/01/04 06:18:55;;;;;;;;;;;;;;;12.48;53.31;96483.53;4231199;28;5761;-65
2024/01/04 06:20:58;;;;;;;;;;;;;;;12.50;53.32;96492.91;4232511;28;6909;-64
2024/01/04 06:23:01;;;;;;;;;;;;;;;12.54;53.21;96491.44;4224187;28;6558;-63
2024/01/04 06:25:05;;;;;;;;;;;;;;;12.53;53.00;96491.66;4233738;28;5641;-63
2024/01/04 06:27:08;;;;;;;;;;;;;;;12.51;52.93;96502.47;4225304;28;6495;-64
2024/01/04 06:29:10;;;;;;;;;;;;;;;12.48;53.32;96502.91;4225843;28;5789;-64
2024/01/04 06:31:14;;;;;;;;;;;;;;;12.48;53.25;96502.09;4224910;28;6051;-64
2024/01/04 06:33:18;;;;;;;;;;;;;;;12.48;52.87;96507.41;4225645;28;6727;-64
2024/01/04 06:35:21;;;;;;;;;;;;;;;12.45;52.87;96507.81;4223279;28;5669;-64
2024/01/04 06:37:24;;;;;;;;;;;;;;;12.41;52.32;96510.06;4228408;28;5733;-64
2024/01/04 06:39:28;;;;;;;;;;;;;;;12.41;52.61;96514.56;4219692;28;5876;-63
2024/01/04 06:41:31;;;;;;;;;;;;;;;12.43;52.24;96512.50;4230767;28;5468;-63
2024/01/04 06:43:32;;;;;;;;;;;;;;;12.43;51.66;96515.16;4217263;28;7394;-63
2024/01/04 06:45:36;;;;;;;;;;;;;;;12.43;51.82;96507.22;4225793;28;5671;-62
2024/01/04 06:47:40;;;;;;;;;;;;;;;12.45;51.91;96515.75;4225563;28;5201;-63
2024/01/04 06:49:43;;;;;;;;;;;;;;;12.47;52.15;96509.25;4225265;28;7687;-64
2024/01/04 06:51:46;;;;;;;;;;;;;;;12.49;52.04;96515.13;4217262;28;5675;-63
2024/01/04 06:53:48;;;;;;;;;;;;;;;12.52;52.03;96516.53;4231545;28;5657;-63
2024/01/04 06:55:51;;;;;;;;;;;;;;;12.53;51.85;96518.16;4223010;28;6359;-63
2024/01/04 06:57:54;;;;;;;;;;;;;;;12.56;51.97;96512.44;4225545;28;5685;-63
2024/01/04 06:59:58;;;;;;;;;;;;;;;12.59;51.93;96525.28;4233492;28;5737;-63
2024/01/04 07:02:00;;;;;;;;;;;;;;;12.59;52.16;96535.91;4225646;28;5729;-64
2024/01/04 07:04:04;;;;;;;;;;;;;;;12.58;51.96;96536.94;4225907;28;5801;-64
2024/01/04 07:06:07;;;;;;;;;;;;;;;12.57;51.65;96551.22;4216992;28;6408;-63
2024/01/04 07:08:09;;;;;;;;;;;;;;;12.53;52.02;96547.34;4224946;28;5808;-63
2024/01/04 07:10:14;;;;;;;;;;;;;;;12.51;52.43;96550.19;4226055;28;5638;-64
2024/01/04 07:12:16;;;;;;;;;;;;;;;12.51;52.19;96554.69;4225397;28;6389;-65
2024/01/04 07:14:19;;;;;;;;;;;;;;;12.49;52.51;96554.91;4223504;28;5686;-64
2024/01/04 07:16:21;;;;;;;;;;;;;;;12.48;52.47;96565.72;4216701;28;5771;-64
2024/01/04 07:18:24;;;;;;;;;;;;;;;12.45;52.40;96561.63;4219255;28;5742;-64
2024/01/04 07:20:28;;;;;;;;;;;;;;;12.45;52.75;96568.78;4230736;28;5901;-64
2024/01/04 07:22:31;;;;;;;;;;;;;;;12.47;52.81;96577.38;4228367;28;5650;-64
2024/01/04 07:24:34;;;;;;;;;;;;;;;12.44;52.82;96570.63;4221455;28;5683;-65
2024/01/04 07:26:36;;;;;;;;;;;;;;;12.47;52.63;96577.38;4222774;28;5642;-65
2024/01/04 07:28:40;;;;;;;;;;;;;;;12.44;52.90;96586.53;4225163;28;5667;-67
2024/01/04 07:30:42;;;;;;;;;;;;;;;12.43;52.70;96587.56;4229796;28;5661;-66
2024/01/04 07:32:45;;;;;;;;;;;;;;;12.43;53.09;96589.38;4223667;28;5750;-66
2024/01/04 07:34:49;;;;;;;;;;;;;;;12.40;52.84;96593.28;4214865;28;5616;-66
2024/01/04 07:37:07;;;;;;;;;;;;;;;12.37;53.09;96590.25;4216679;28;5688;-66
2024/01/04 07:39:10;;;;;;;;;;;;;;;12.35;52.99;96584.34;4231847;27;5646;-66
2024/01/04 07:41:13;;;;;;;;;;;;;;;12.34;52.94;96580.84;4225353;28;5695;-66
2024/01/04 07:43:15;;;;;;;;;;;;;;;12.32;53.10;96590.03;4233429;28;5693;-66
2024/01/04 07:45:18;;;;;;;;;;;;;;;12.31;53.22;96585.75;4224849;28;5683;-66
2024/01/04 07:47:21;;;;;;;;;;;;;;;12.29;53.16;96587.81;4230524;28;5824;-68
2024/01/04 07:49:24;;;;;;;;;;;;;;;12.30;53.04;96594.75;4228994;28;5712;-64
2024/01/04 07:51:27;;;;;;;;;;;;;;;12.28;53.03;96597.59;4225794;28;5797;-62
2024/01/04 07:53:31;;;;;;;;;;;;;;;12.31;53.25;96596.38;4228253;28;5673;-65
2024/01/04 07:55:34;;;;;;;;;;;;;;;12.33;53.00;96600.44;4234044;28;5657;-62
2024/01/04 07:57:37;;;;;;;;;;;;;;;12.36;53.04;96604.53;4220053;28;5760;-61
2024/01/04 07:59:41;;;;;;;;;;;;;;;12.39;53.24;96601.44;4222556;28;5613;-60
2024/01/04 08:01:44;;;;;;;;;;;;;;;12.41;52.93;96602.03;4231012;28;5679;-60
2024/01/04 08:03:47;;;;;;;;;;;;;;;12.44;53.10;96601.63;4224338;28;5654;-60
2024/01/04 08:05:50;;;;;;;;;;;;;;;12.46;52.62;96607.56;4221626;28;5739;-61
2024/01/04 08:07:53;;;;;;;;;;;;;;;12.46;52.67;96604.91;4221177;28;5671;-61
2024/01/04 08:09:56;;;;;;;;;;;;;;;12.47;53.04;96617.13;4234285;28;5674;-60
2024/01/04 08:11:59;;;;;;;;;;;;;;;12.47;53.08;96617.13;4236067;28;5641;-61
2024/01/04 08:14:02;;;;;;;;;;;;;;;12.48;52.62;96626.72;4235787;28;5713;-62
2024/01/04 08:16:07;;;;;;;;;;;;;;;12.45;52.59;96619.16;4227255;28;5650;-63
2024/01/04 08:18:10;;;;;;;;;;;;;;;12.42;52.74;96616.94;4219152;28;6487;-63
2024/01/04 08:20:14;;;;;;;;;;;;;;;12.41;52.88;96624.06;4234600;28;5657;-64
2024/01/04 08:22:18;;;;;;;;;;;;;;;12.42;52.79;96622.22;4227137;28;5650;-64
2024/01/04 08:24:21;;;;;;;;;;;;;;;12.42;52.55;96624.88;4229315;28;5662;-65
2024/01/04 08:26:27;;;;;;;;;;;;;;;12.41;52.84;96624.06;4236105;28;5770;-64
2024/01/04 08:28:30;;;;;;;;;;;;;;;12.43;53.00;96631.81;4227172;28;5642;-63
2024/01/04 08:30:32;;;;;;;;;;;;;;;12.44;52.87;96620.19;4227316;28;5833;-63
2024/01/04 08:32:36;;;;;;;;;;;;;;;12.45;52.86;96632.41;4231917;28;5782;-67
2024/01/04 08:34:38;;;;;;;;;;;;;;;12.46;52.96;96621.63;4231522;28;5662;-61
2024/01/04 08:36:41;;;;;;;;;;;;;;;12.49;52.94;96636.28;4227214;28;5940;-63
2024/01/04 08:38:44;;;;;;;;;;;;;;;12.52;53.16;96631.38;4226903;28;5665;-63
2024/01/04 08:40:45;;;;;;;;;;;;;;;12.54;53.23;96628.50;4227142;28;5666;-62
2024/01/04 08:42:50;;;;;;;;;;;;;;;12.56;53.46;96631.75;4229751;28;5647;-69
2024/01/04 08:44:53;;;;;;;;;;;;;;;12.58;53.26;96637.69;4231321;28;5649;-62
2024/01/04 08:46:57;;;;;;;;;;;;;;;12.56;53.24;96644.22;4220244;28;5070;-65
2024/01/04 08:49:00;;;;;;;;;;;;;;;12.49;53.47;96644.25;4222403;28;5851;-65
2024/01/04 08:51:04;;;;;;;;;;;;;;;12.46;53.27;96644.66;4231836;28;5638;-65
2024/01/04 08:53:06;;;;;;;;;;;;;;;12.47;53.20;96638.34;4229903;28;5657;-66
2024/01/04 08:55:10;;;;;;;;;;;;;;;12.50;53.17;96640.56;4225427;28;5710;-67
2024/01/04 08:57:14;;;;;;;;;;;;;;;12.52;53.16;96654.44;4229324;28;5744;-68
2024/01/04 08:59:20;;;;;;;;;;;;;;;12.52;53.19;96655.25;4220507;28;5854;-68
2024/01/04 09:01:23;;;;;;;;;;;;;;;12.54;53.53;96649.72;4228979;27;6594;-69
2024/01/04 09:03:26;;;;;;;;;;;;;;;12.57;52.98;96657.28;4225231;28;5801;-68
2024/01/04 09:05:30;;;;;;;;;;;;;;;12.53;52.98;96656.06;4230458;28;5766;-68
2024/01/04 09:07:33;;;;;;;;;;;;;;;12.53;53.26;96658.69;4227323;28;5662;-68
2024/01/04 09:09:36;;;;;;;;;;;;;;;12.54;53.05;96655.03;4229659;28;5670;-67
2024/01/04 09:11:41;;;;;;;;;;;;;;;12.54;53.24;96650.53;4230580;28;5673;-68
2024/01/04 09:13:45;;;;;;;;;;;;;;;12.59;53.05;96649.13;4232762;27;5744;-67
2024/01/04 09:15:49;;;;;;;;;;;;;;;12.58;53.28;96645.66;4230263;27;5677;-66
2024/01/04 09:17:54;;;;;;;;;;;;;;;12.59;53.00;96644.63;4225351;28;5780;-67
2024/01/04 09:19:58;;;;;;;;;;;;;;;12.60;53.30;96654.22;4229447;28;5876;-68
2024/01/04 09:22:01;;;;;;;;;;;;;;;12.60;53.25;96670.13;4226145;28;7722;-68
2024/01/04 09:24:04;;;;;;;;;;;;;;;12.59;53.03;96671.16;4228484;28;5749;-68
2024/01/04 09:26:08;;;;;;;;;;;;;;;12.58;52.85;96666.88;4232281;27;5830;-69
2024/01/04 09:28:11;;;;;;;;;;;;;;;12.58;52.77;96677.47;4222129;28;5104;-69
2024/01/04 09:30:14;;;;;;;;;;;;;;;12.59;52.73;96678.28;4219413;28;5777;-68
2024/01/04 09:32:19;;;;;;;;;;;;;;;12.54;52.42;96681.53;4224656;28;5682;-69
2024/01/04 09:34:24;;;;;;;;;;;;;;;12.52;52.40;96683.59;4220408;28;5641;-67
2024/01/04 09:36:27;;;;;;;;;;;;;;;12.51;52.71;96682.78;4230288;28;5900;-68
2024/01/04 09:38:32;;;;;;;;;;;;;;;12.55;52.64;96680.50;4220644;28;5646;-68
2024/01/04 09:40:34;;;;;;;;;;;;;;;12.61;52.69;96687.66;4234214;28;5657;-67
2024/01/04 09:42:40;;;;;;;;;;;;;;;12.63;52.79;96698.88;4221400;28;5762;-68
2024/01/04 09:44:45;;;;;;;;;;;;;;;12.61;52.65;96692.97;4225175;28;5853;-69
2024/01/04 09:46:50;;;;;;;;;;;;;;;12.64;52.79;96697.84;4218446;28;6389;-69
2024/01/04 09:48:59;;;;;;;;;;;;;;;12.65;53.28;96688.84;4233151;28;5693;-72
2024/01/04 09:51:02;;;;;;;;;;;;;;;12.67;53.13;96692.09;4225633;28;5686;-67
2024/01/04 09:53:06;;;;;;;;;;;;;;;12.69;53.27;96689.28;4233890;28;5737;-67
2024/01/04 09:55:09;;;;;;;;;;;;;;;12.74;53.34;96682.31;4229522;28;5709;-67
2024/01/04 09:57:13;;;;;;;;;;;;;;;12.78;53.54;96694.13;4217853;28;5702;-67
2024/01/04 09:59:16;;;;;;;;;;;;;;;12.79;53.66;96685.13;4232890;27;6338;-72
2024/01/04 10:01:22;;;;;;;;;;;;;;;12.81;53.64;96691.06;4237695;27;5810;-66
2024/01/04 10:03:26;;;;;;;;;;;;;;;12.80;53.70;96689.44;4225293;27;5650;-66
2024/01/04 10:05:34;;;;;;;;;;;;;;;12.81;53.81;96691.06;4227707;28;5638;-68
2024/01/04 10:07:44;;;;;;;;;;;;;;;12.79;53.91;96690.44;4224816;28;5663;-68
2024/01/04 10:09:51;;;;;;;;;;;;;;;12.77;54.30;96691.69;4221989;28;5741;-67
2024/01/04 10:11:59;;;;;;;;;;;;;;;12.73;54.16;96687.81;4229765;28;5820;-66
2024/01/04 10:14:03;;;;;;;;;;;;;;;12.70;54.66;96685.59;4231075;28;5634;-67
2024/01/04 10:16:06;;;;;;;;;;;;;;;12.70;54.45;96683.75;4232616;28;5736;-67
2024/01/04 10:18:12;;;;;;;;;;;;;;;12.74;54.65;96670.88;4229875;28;5646;-68
2024/01/04 10:20:16;;;;;;;;;;;;;;;12.73;54.49;96670.06;4229548;27;5582;-68
2024/01/04 10:22:21;;;;;;;;;;;;;;;12.76;54.59;96669.66;4223607;27;5652;-67
2024/01/04 10:24:26;;;;;;;;;;;;;;;12.80;54.93;96675.38;4213815;28;5762;-70
2024/01/04 10:26:29;;;;;;;;;;;;;;;12.78;54.92;96672.09;4226307;28;5652;-73
2024/01/04 10:28:32;;;;;;;;;;;;;;;12.80;54.97;96676.19;4225689;28;5769;-80
2024/01/04 10:30:35;;;;;;;;;;;;;;;12.79;54.76;96669.22;4225959;28;5746;-71
2024/01/04 10:35:06;;;;;;;;;;;;;;;12.78;54.92;96656.97;4166137;28;5740;-88
2024/01/04 10:37:12;;;;;;;;;;;;;;;12.82;54.63;96658.22;4149873;28;5769;-87
2024/01/04 10:39:20;;;;;;;;;;;;;;;12.82;54.72;96663.50;4168724;28;5827;-87
2024/01/04 10:41:23;;;;;;;;;;;;;;;12.81;54.44;96656.59;4167921;28;5669;-87
2024/01/04 10:43:27;;;;;;;;;;;;;;;12.81;54.24;96659.22;4168579;28;5745;-85
2024/01/04 10:45:30;;;;;;;;;;;;;;;12.82;54.16;96657.41;4150038;28;5770;-87
2024/01/04 10:47:34;;;;;;;;;;;;;;;12.82;54.33;96655.56;4164276;28;5729;-86
2024/01/04 10:49:41;;;;;;;;;;;;;;;12.83;54.63;96651.88;4170721;28;5756;-91
2024/01/04 10:51:49;;;;;;;;;;;;;;;12.85;54.44;96653.50;4166788;28;5777;-91
2024/01/04 10:53:58;;;;;;;;;;;;;;;12.85;54.44;96640.22;4173948;28;5664;-89